Time;durP1;ratioP1;P1;durP2;ratioP2;P2;SDS_P1;SDS_P2;PMS_P1;PMS_P2;Temp;Humidity;BMP_temperature;BMP_pressure;BME280_temperature;BME280_humidity;BME280_pressure;Samples;Min_cycle;Max_cycle;Signal;HPM_P1;HPM_P2
2020/12/05 00:00:43;;;;;;;3.50;0.90;;;;;;;7.11;71.19;96997.16;5050454;28;20513;-88
2020/12/05 00:03:08;;;;;;;1.70;0.98;;;;;;;7.03;71.14;96994.56;5050327;28;20049;-89
2020/12/05 00:05:33;;;;;;;2.28;0.90;;;;;;;7.02;71.20;96992.94;5051042;28;20028;-89
2020/12/05 00:07:59;;;;;;;1.98;0.82;;;;;;;6.86;71.94;96998.16;5052151;28;20032;-89
2020/12/05 00:10:26;;;;;;;3.47;1.25;;;;;;;7.06;71.12;96990.81;5051561;28;20025;-89
2020/12/05 00:12:51;;;;;;;7.43;1.40;;;;;;;6.89;71.61;96995.22;5053317;28;20032;-88
2020/12/05 00:15:16;;;;;;;4.90;1.30;;;;;;;6.75;72.31;97000.13;5055788;28;20108;-89
2020/12/05 00:17:42;;;;;;;2.88;1.00;;;;;;;6.60;72.66;96999.16;5055536;28;20466;-88
2020/12/05 00:20:07;;;;;;;3.38;0.70;;;;;;;6.75;72.19;96996.69;5055235;28;20146;-88
2020/12/05 00:22:32;;;;;;;2.72;0.90;;;;;;;6.60;71.96;97009.56;5053621;28;20025;-88
2020/12/05 00:24:58;;;;;;;0.50;0.50;;;;;;;6.65;72.17;97006.47;5054129;28;20033;-87
2020/12/05 00:27:23;;;;;;;1.25;0.70;;;;;;;6.71;71.62;96998.84;5055394;28;20029;-89
2020/12/05 00:29:49;;;;;;;1.42;0.68;;;;;;;6.61;72.05;97000.75;5054275;28;20032;-88
2020/12/05 00:34:47;;;;;;;2.78;0.63;;;;;;;6.41;72.86;97002.06;5057856;28;20041;-96
2020/12/05 00:37:13;;;;;;;1.02;0.70;;;;;;;6.65;71.83;97007.28;5058237;28;20031;-95
2020/12/05 00:39:38;;;;;;;3.13;0.65;;;;;;;6.58;71.65;96995.91;5056733;28;20052;-95
2020/12/05 00:42:04;;;;;;;0.98;0.70;;;;;;;6.69;71.13;96995.53;5056588;28;20116;-96
2020/12/05 00:44:29;;;;;;;0.95;0.47;;;;;;;6.67;71.46;96981.06;5057137;28;20032;-96
2020/12/05 00:46:55;;;;;;;1.80;0.75;;;;;;;6.65;71.48;96996.03;5056900;28;20025;-95
2020/12/05 00:49:20;;;;;;;1.27;0.63;;;;;;;6.79;71.47;96999.78;5057505;28;20033;-95
2020/12/05 00:51:49;;;;;;;1.77;0.60;;;;;;;6.69;71.64;96989.53;5056870;28;20106;-95
2020/12/05 00:54:15;;;;;;;2.90;0.82;;;;;;;6.83;71.08;97008.91;5056880;28;20025;-95
2020/12/05 00:56:41;;;;;;;0.65;0.65;;;;;;;6.88;70.76;97004.03;5056947;28;20025;-95
2020/12/05 00:59:06;;;;;;;2.03;0.93;;;;;;;6.88;71.82;97011.84;5056277;28;20021;-96
2020/12/05 01:01:32;;;;;;;0.95;0.70;;;;;;;6.73;71.72;97009.91;5056214;28;20021;-96
2020/12/05 01:03:57;;;;;;;3.72;1.30;;;;;;;6.70;71.65;96999.00;5055785;28;20036;-94
2020/12/05 01:06:23;;;;;;;1.55;0.60;;;;;;;6.86;71.36;97004.19;5056430;28;20047;-95
2020/12/05 01:08:48;;;;;;;0.65;0.40;;;;;;;6.86;71.23;96998.97;5056245;28;20049;-96
2020/12/05 01:11:19;;;;;;;1.00;0.50;;;;;;;6.80;70.43;96998.81;5057327;28;20128;-95
2020/12/05 01:13:46;;;;;;;0.82;0.50;;;;;;;6.85;71.60;96991.31;5058954;28;20033;-96
2020/12/05 01:16:19;;;;;;;1.83;0.52;;;;;;;6.92;71.87;96989.69;5058973;28;20016;-96
2020/12/05 01:18:45;;;;;;;0.50;0.30;;;;;;;6.94;72.32;96990.34;5065439;28;20553;-94
2020/12/05 01:21:12;;;;;;;1.10;0.75;;;;;;;6.97;71.57;96994.41;5069000;28;20081;-95
2020/12/05 01:23:38;;;;;;;1.08;0.52;;;;;;;6.95;72.42;97002.38;5061088;28;20021;-95
2020/12/05 01:26:05;;;;;;;0.47;0.32;;;;;;;6.99;71.31;97002.88;5056555;28;20125;-95
2020/12/05 01:28:31;;;;;;;1.48;0.50;;;;;;;7.04;71.83;97006.63;5057631;28;20029;-95
2020/12/05 01:30:57;;;;;;;0.80;0.60;;;;;;;7.03;71.94;96998.94;5057843;28;20016;-96
2020/12/05 01:33:22;;;;;;;2.03;0.38;;;;;;;7.09;71.55;97001.72;5058923;23;20039;-89
2020/12/05 01:35:48;;;;;;;2.10;0.63;;;;;;;6.92;72.32;96994.91;5034415;28;20506;-89
2020/12/05 01:38:13;;;;;;;0.80;0.40;;;;;;;7.17;71.09;97018.31;4996956;28;20030;-89
2020/12/05 01:40:38;;;;;;;2.25;0.57;;;;;;;7.11;71.36;97004.97;5014638;28;20084;-89
2020/12/05 01:43:04;;;;;;;1.55;0.50;;;;;;;7.22;71.43;97005.59;5014639;28;20049;-89
2020/12/05 01:45:29;;;;;;;1.00;0.65;;;;;;;7.28;71.02;97010.97;5014524;28;20062;-89
2020/12/05 01:47:55;;;;;;;0.77;0.50;;;;;;;7.18;71.59;97007.72;5014355;28;20058;-89
2020/12/05 01:50:21;;;;;;;0.70;0.40;;;;;;;7.18;71.72;97006.94;5014342;28;20419;-89
2020/12/05 01:52:49;;;;;;;0.98;0.50;;;;;;;7.17;71.43;97000.06;5014133;28;20069;-90
2020/12/05 01:55:14;;;;;;;1.10;0.65;;;;;;;7.14;71.91;96991.59;5014156;28;20391;-90
2020/12/05 01:57:40;;;;;;;0.73;0.40;;;;;;;7.20;72.00;96999.75;5014125;28;20022;-90
2020/12/05 02:00:06;;;;;;;1.52;0.77;;;;;;;7.27;71.20;97000.72;5013677;28;20109;-90
2020/12/05 02:02:31;;;;;;;1.50;0.60;;;;;;;7.16;71.60;96996.66;5014001;28;20038;-90
2020/12/05 02:05:12;;;;;;;1.00;0.75;;;;;;;7.28;71.89;97010.16;5014015;28;20034;-90
2020/12/05 02:07:47;;;;;;;0.60;0.50;;;;;;;7.37;71.21;97011.78;4996295;28;20121;-90
2020/12/05 02:10:20;;;;;;;0.55;0.38;;;;;;;7.32;72.39;97008.84;5014003;28;20266;-90
2020/12/05 02:12:53;;;;;;;1.33;0.50;;;;;;;7.40;71.71;97008.00;5013907;28;20117;-90
2020/12/05 02:15:27;;;;;;;3.33;0.88;;;;;;;7.26;71.32;96999.06;5013596;28;20104;-89
2020/12/05 02:17:59;;;;;;;0.25;0.25;;;;;;;7.13;71.36;96995.19;4996455;28;20045;-91
2020/12/05 02:20:27;;;;;;;0.52;0.35;;;;;;;7.34;71.60;97012.91;4996279;28;20084;-90
2020/12/05 02:22:53;;;;;;;1.48;0.50;;;;;;;7.37;71.68;97000.53;5013696;28;20029;-90
2020/12/05 02:25:19;;;;;;;3.03;0.52;;;;;;;7.36;71.35;97010.13;4995944;28;20399;-90
2020/12/05 02:27:44;;;;;;;1.85;0.40;;;;;;;7.38;71.30;97002.94;5013480;28;20110;-90
2020/12/05 02:30:10;;;;;;;1.15;0.50;;;;;;;7.43;71.59;97016.31;5013096;28;20414;-90
2020/12/05 02:32:36;;;;;;;2.40;0.60;;;;;;;7.44;72.57;97017.13;4996007;28;20037;-90
2020/12/05 02:35:02;;;;;;;1.42;0.50;;;;;;;7.45;71.54;97008.34;5012873;28;20034;-90
2020/12/05 02:37:29;;;;;;;0.82;0.55;;;;;;;7.50;71.83;97022.50;4995786;28;20168;-90
2020/12/05 02:39:57;;;;;;;2.10;0.85;;;;;;;7.38;72.63;97016.00;5013538;28;20506;-90
2020/12/05 02:42:22;;;;;;;1.27;0.63;;;;;;;7.44;71.75;97032.78;5013292;28;20033;-90
2020/12/05 02:44:50;;;;;;;1.55;0.43;;;;;;;7.57;71.93;97038.31;5012877;28;20026;-90
2020/12/05 02:47:16;;;;;;;0.85;0.45;;;;;;;7.25;71.71;97013.13;5013343;28;20022;-90
2020/12/05 02:49:42;;;;;;;3.33;0.47;;;;;;;7.50;72.14;97027.75;5013067;28;20049;-90
2020/12/05 02:52:08;;;;;;;0.80;0.60;;;;;;;7.38;72.11;97002.94;5013015;28;20021;-90
2020/12/05 02:54:33;;;;;;;0.65;0.50;;;;;;;7.63;71.98;97026.38;5012914;28;20032;-90
2020/12/05 02:57:00;;;;;;;0.98;0.80;;;;;;;7.59;72.13;97038.16;5013138;28;20381;-90
2020/12/05 02:59:26;;;;;;;1.65;0.93;;;;;;;7.47;72.59;97030.66;5012669;28;20052;-90
2020/12/05 03:01:52;;;;;;;1.63;0.57;;;;;;;7.39;71.98;97015.03;5012384;28;20025;-90
2020/12/05 03:04:17;;;;;;;1.55;0.70;;;;;;;7.66;71.65;97026.88;5012746;28;20049;-90
2020/12/05 03:06:43;;;;;;;3.47;0.90;;;;;;;7.35;72.38;97027.59;5012727;28;20033;-91
2020/12/05 03:09:08;;;;;;;1.02;0.63;;;;;;;7.34;73.52;97022.53;5012787;28;20030;-90
2020/12/05 03:11:34;;;;;;;1.30;0.60;;;;;;;7.34;72.58;97006.88;5012772;28;20030;-90
2020/12/05 03:13:59;;;;;;;0.65;0.50;;;;;;;7.55;71.45;97025.41;5012770;28;20036;-90
2020/12/05 03:16:25;;;;;;;1.38;0.40;;;;;;;7.61;72.40;97033.56;5012663;28;20053;-90
2020/12/05 03:18:50;;;;;;;2.92;0.50;;;;;;;7.58;71.75;97039.13;5012718;28;20064;-91
2020/12/05 03:21:16;;;;;;;0.40;0.40;;;;;;;7.37;72.35;97030.03;5012480;28;20026;-90
2020/12/05 03:23:45;;;;;;;1.92;0.40;;;;;;;7.31;72.47;97031.53;5012622;28;20029;-90
2020/12/05 03:26:11;;;;;;;0.80;0.38;;;;;;;7.39;71.87;97043.75;4994872;28;20080;-90
2020/12/05 03:28:37;;;;;;;0.25;0.25;;;;;;;7.43;73.05;97037.22;5012592;28;20022;-90
2020/12/05 03:31:02;;;;;;;0.20;0.20;;;;;;;7.63;72.06;97040.25;5012787;28;20092;-91
2020/12/05 03:33:28;;;;;;;0.57;0.20;;;;;;;7.66;71.35;97041.69;4996201;28;20029;-90
2020/12/05 03:35:53;;;;;;;1.45;0.40;;;;;;;7.64;71.61;97035.84;5012469;28;20535;-90
2020/12/05 03:38:18;;;;;;;1.38;0.30;;;;;;;7.60;72.24;97037.16;5012793;28;20487;-90
2020/12/05 03:40:44;;;;;;;0.52;0.20;;;;;;;7.63;71.98;97042.84;5012689;28;20053;-90
2020/12/05 03:43:09;;;;;;;0.20;0.20;;;;;;;7.45;71.44;97037.84;4994902;28;20502;-90
2020/12/05 03:45:34;;;;;;;0.30;0.30;;;;;;;7.71;72.13;97049.84;5012187;28;20033;-91
2020/12/05 03:48:00;;;;;;;0.22;0.20;;;;;;;7.57;71.58;97037.50;5012036;28;20072;-91
2020/12/05 03:50:25;;;;;;;0.40;0.22;;;;;;;7.50;71.99;97043.41;5011874;28;20021;-90
2020/12/05 03:52:51;;;;;;;0.20;0.20;;;;;;;7.58;71.85;97039.13;5012338;28;20025;-90
2020/12/05 03:55:16;;;;;;;0.20;0.20;;;;;;;7.54;71.48;97042.09;5012267;28;20392;-90
2020/12/05 03:57:41;;;;;;;1.00;0.47;;;;;;;7.68;71.92;97068.47;5012023;28;20483;-90
2020/12/05 04:00:07;;;;;;;0.30;0.20;;;;;;;7.30;72.54;97042.13;5012262;28;20026;-91
2020/12/05 04:02:32;;;;;;;0.52;0.30;;;;;;;7.43;71.68;97055.47;5012183;28;20026;-91
2020/12/05 04:04:57;;;;;;;0.47;0.20;;;;;;;7.28;72.29;97054.53;5011810;28;20168;-90
2020/12/05 04:07:23;;;;;;;0.30;0.30;;;;;;;7.31;73.02;97059.41;5011542;28;20032;-91
2020/12/05 04:09:48;;;;;;;0.40;0.20;;;;;;;7.15;72.68;97052.44;5011905;28;20426;-91
2020/12/05 04:12:13;;;;;;;1.27;0.20;;;;;;;7.29;72.99;97077.84;5011841;28;20029;-90
2020/12/05 04:14:39;;;;;;;1.17;0.25;;;;;;;7.07;72.50;97055.88;5012079;28;20040;-91
2020/12/05 04:17:06;;;;;;;0.20;0.20;;;;;;;7.33;72.06;97054.84;5012006;28;20022;-91
2020/12/05 04:19:32;;;;;;;0.40;0.20;;;;;;;7.33;72.22;97073.13;5012002;28;20033;-90
2020/12/05 04:21:57;;;;;;;0.20;0.20;;;;;;;7.37;72.85;97082.25;5011361;28;20037;-90
2020/12/05 04:24:23;;;;;;;0.30;0.30;;;;;;;7.33;71.68;97078.34;5011775;28;20445;-90
2020/12/05 04:26:48;;;;;;;0.30;0.30;;;;;;;7.05;72.82;97075.25;5011690;28;20034;-91
2020/12/05 04:29:13;;;;;;;1.35;0.45;;;;;;;7.41;71.53;97106.22;5011947;28;20353;-91
2020/12/05 04:31:39;;;;;;;0.30;0.30;;;;;;;7.42;71.92;97092.19;5011894;28;20030;-90
2020/12/05 04:34:04;;;;;;;1.20;0.50;;;;;;;7.32;72.19;97102.78;5012328;28;20029;-90
2020/12/05 04:36:30;;;;;;;0.35;0.35;;;;;;;7.52;72.11;97113.69;4993605;28;20429;-90
2020/12/05 04:38:55;;;;;;;0.35;0.35;;;;;;;7.34;72.45;97103.44;5012251;28;20369;-90
2020/12/05 04:41:20;;;;;;;0.77;0.60;;;;;;;7.55;71.59;97116.78;5011780;28;20029;-91
2020/12/05 04:43:46;;;;;;;0.50;0.50;;;;;;;7.32;72.21;97098.38;5011567;28;20448;-90
2020/12/05 04:46:12;;;;;;;0.75;0.60;;;;;;;7.41;72.13;97107.03;5011634;28;20048;-91
2020/12/05 04:48:38;;;;;;;0.85;0.60;;;;;;;7.38;72.26;97101.31;5010691;28;20113;-91
2020/12/05 04:51:04;;;;;;;0.63;0.63;;;;;;;7.19;72.92;97129.41;5011561;28;20034;-91
2020/12/05 04:53:31;;;;;;;4.05;0.60;;;;;;;7.32;73.38;97137.53;5011366;28;20033;-91
2020/12/05 04:55:59;;;;;;;0.77;0.77;;;;;;;7.37;72.64;97147.50;5011506;28;20105;-90
2020/12/05 04:58:24;;;;;;;0.82;0.82;;;;;;;7.37;72.22;97120.59;5013676;28;20033;-91
2020/12/05 05:00:57;;;;;;;0.80;0.77;;;;;;;7.58;71.91;97146.97;5015174;28;20030;-90
2020/12/05 05:03:27;;;;;;;0.82;0.80;;;;;;;7.50;71.09;97137.38;4997866;28;20550;-92
2020/12/05 05:05:55;;;;;;;0.80;0.80;;;;;;;7.72;71.28;97153.31;5015311;28;20026;-91
2020/12/05 05:08:24;;;;;;;1.15;0.60;;;;;;;7.53;72.05;97147.47;5013807;28;20022;-91
2020/12/05 05:11:09;;;;;;;0.93;0.80;;;;;;;7.44;72.35;97142.41;5015233;28;20113;-90
2020/12/05 05:14:06;;;;;;;0.88;0.60;;;;;;;7.63;71.87;97155.13;5015319;28;20076;-91
2020/12/05 05:16:31;;;;;;;0.40;0.38;;;;;;;7.69;71.39;97171.94;4997175;28;20403;-91
2020/12/05 05:19:17;;;;;;;0.30;0.20;;;;;;;7.68;71.01;97170.28;5015029;28;20030;-91
2020/12/05 05:21:42;;;;;;;0.20;0.20;;;;;;;7.63;70.93;97180.44;5015895;28;20092;-90
2020/12/05 05:24:25;;;;;;;0.20;0.20;;;;;;;7.49;72.39;97182.72;5016117;28;20471;-91
2020/12/05 05:27:03;;;;;;;0.13;0.13;;;;;;;7.50;72.19;97192.19;5037501;28;20106;-90
2020/12/05 05:29:33;;;;;;;0.80;0.30;;;;;;;7.07;72.69;97188.91;5039908;28;20018;-91
2020/12/05 05:32:08;;;;;;;0.30;0.20;;;;;;;7.08;73.23;97206.19;5023049;28;20025;-91
2020/12/05 05:34:34;;;;;;;0.25;0.25;;;;;;;7.40;72.71;97209.00;5016235;28;20498;-91
2020/12/05 05:36:59;;;;;;;0.17;0.17;;;;;;;7.44;72.69;97211.09;5015338;28;20029;-91
2020/12/05 05:39:25;;;;;;;0.10;0.10;;;;;;;7.31;71.75;97221.22;4997094;28;20480;-90
2020/12/05 05:41:53;;;;;;;0.30;0.22;;;;;;;7.29;73.16;97224.00;4996893;28;20026;-90
2020/12/05 05:44:24;;;;;;;0.20;0.20;;;;;;;7.46;72.03;97219.59;5014278;28;20242;-90
2020/12/05 05:46:50;;;;;;;1.55;0.20;;;;;;;7.29;72.50;97223.19;5014327;28;20500;-91
2020/12/05 05:49:31;;;;;;;0.25;0.25;;;;;;;7.33;72.28;97221.88;4996809;28;20022;-91
2020/12/05 05:51:59;;;;;;;0.20;0.20;;;;;;;7.10;73.18;97229.50;5014463;28;20033;-90
2020/12/05 05:54:31;;;;;;;1.05;0.30;;;;;;;7.04;73.44;97251.00;5014167;28;20022;-90
2020/12/05 05:57:05;;;;;;;0.15;0.15;;;;;;;7.01;73.34;97243.50;5014153;28;20107;-89
2020/12/05 05:59:38;;;;;;;0.30;0.20;;;;;;;7.23;73.56;97260.38;4996546;28;20038;-90
2020/12/05 06:02:07;;;;;;;0.20;0.20;;;;;;;7.00;73.85;97253.13;4996567;28;20048;-90
2020/12/05 06:04:33;;;;;;;3.67;0.10;;;;;;;7.11;73.27;97267.69;5014222;28;20048;-92
2020/12/05 06:07:00;;;;;;;0.20;0.20;;;;;;;7.09;72.98;97265.22;5013984;28;20492;-90
2020/12/05 06:09:39;;;;;;;0.20;0.20;;;;;;;7.15;72.85;97267.19;5013597;28;20022;-90
2020/12/05 06:12:06;;;;;;;0.30;0.20;;;;;;;7.05;73.42;97282.16;5020897;28;20037;-91
2020/12/05 06:14:32;;;;;;;0.47;0.28;;;;;;;6.99;72.15;97263.72;4996064;28;20164;-91
2020/12/05 06:16:58;;;;;;;0.20;0.20;;;;;;;6.78;72.78;97269.34;5013954;28;20053;-90
2020/12/05 06:19:25;;;;;;;0.90;0.20;;;;;;;6.60;73.39;97275.47;5013736;28;20484;-91
2020/12/05 06:21:56;;;;;;;0.20;0.20;;;;;;;6.43;73.69;97289.38;4996288;28;20364;-91
2020/12/05 06:24:40;;;;;;;0.20;0.20;;;;;;;6.33;74.15;97295.50;5012864;28;20026;-91
2020/12/05 06:27:08;;;;;;;0.43;0.30;;;;;;;6.44;73.65;97304.88;5013981;28;20064;-90
2020/12/05 06:29:36;;;;;;;0.28;0.28;;;;;;;5.71;75.56;97294.72;5013448;28;20025;-90
2020/12/05 06:32:01;;;;;;;0.20;0.20;;;;;;;6.19;73.93;97296.09;5012741;28;20079;-91
2020/12/05 06:34:40;;;;;;;0.30;0.30;;;;;;;6.20;72.45;97307.31;4996790;28;20030;-91
2020/12/05 06:37:07;;;;;;;0.40;0.10;;;;;;;5.97;72.62;97330.44;5013657;28;20021;-89
2020/12/05 06:39:33;;;;;;;0.15;0.15;;;;;;;5.88;72.84;97311.28;4996283;28;20026;-90
2020/12/05 06:41:58;;;;;;;2.70;0.20;;;;;;;5.47;73.92;97323.94;5019324;28;20077;-90
2020/12/05 06:44:35;;;;;;;0.20;0.20;;;;;;;5.49;72.81;97338.44;5012927;28;20040;-89
2020/12/05 06:47:04;;;;;;;0.20;0.20;;;;;;;5.45;72.78;97336.28;5013193;28;20431;-90
2020/12/05 06:49:37;;;;;;;0.80;0.40;;;;;;;5.68;72.54;97347.06;5013358;28;20022;-91
2020/12/05 06:52:21;;;;;;;0.70;0.20;;;;;;;5.44;73.00;97339.84;5011845;28;20029;-91
2020/12/05 06:54:57;;;;;;;7.97;0.40;;;;;;;5.29;72.67;97339.50;5011817;28;20034;-90
2020/12/05 06:57:24;;;;;;;0.20;0.20;;;;;;;5.26;73.63;97358.84;5012042;28;20388;-90
2020/12/05 06:59:50;;;;;;;1.40;0.28;;;;;;;5.26;73.42;97347.63;5011492;28;20033;-91
2020/12/05 07:02:33;;;;;;;0.20;0.20;;;;;;;5.26;73.40;97353.66;5013063;28;20018;-90
2020/12/05 07:05:16;;;;;;;0.20;0.20;;;;;;;4.98;73.66;97350.25;5013458;28;20121;-91
2020/12/05 07:07:43;;;;;;;0.30;0.30;;;;;;;4.73;74.57;97354.28;4995477;28;20026;-90
2020/12/05 07:10:09;;;;;;;0.30;0.30;;;;;;;5.10;72.93;97351.69;5012930;28;20502;-89
2020/12/05 07:12:39;;;;;;;1.05;0.28;;;;;;;5.00;74.33;97369.13;4995345;28;20113;-90
2020/12/05 07:15:25;;;;;;;0.25;0.22;;;;;;;4.83;73.75;97359.47;5011550;28;20033;-90
2020/12/05 07:17:55;;;;;;;0.22;0.22;;;;;;;4.60;74.27;97353.78;5011376;28;20411;-89
2020/12/05 07:20:21;;;;;;;1.20;0.40;;;;;;;4.89;74.51;97369.28;5012527;28;20068;-90
2020/12/05 07:22:51;;;;;;;0.25;0.25;;;;;;;4.69;74.69;97364.16;5012179;28;20026;-87
2020/12/05 07:25:18;;;;;;;1.63;0.40;;;;;;;4.88;74.86;97381.47;5012644;28;20029;-86
2020/12/05 07:27:44;;;;;;;1.38;0.43;;;;;;;4.67;74.58;97342.69;5012150;28;20030;-89
2020/12/05 07:30:10;;;;;;;0.90;0.40;;;;;;;4.72;76.69;97381.25;5012347;28;20083;-89
2020/12/05 07:35:18;;;;;;;24.60;1.85;;;;;;;4.12;78.27;97364.13;5998857;22;20205;-96
2020/12/05 07:48:22;;;;;;;10.32;0.70;;;;;;;4.88;76.95;97419.66;5559181;23;19904;-96
2020/12/05 07:51:27;;;;;;;1.65;0.52;;;;;;;5.10;76.75;97429.69;5079991;28;20005;-96
2020/12/05 07:53:52;;;;;;;1.48;0.63;;;;;;;4.84;77.25;97426.06;5163983;23;20086;-96
2020/12/05 07:58:56;;;;;;;1.52;0.40;;;;;;;5.15;76.50;97448.31;5058005;28;20026;-95
2020/12/05 08:01:28;;;;;;;4.68;0.60;;;;;;;5.25;76.76;97470.84;5107785;23;20096;-94
2020/12/05 08:04:24;;;;;;;2.30;0.50;;;;;;;5.52;75.71;97465.66;5070795;28;20053;-96
2020/12/05 08:07:03;;;;;;;1.50;0.50;;;;;;;5.15;77.55;97478.69;5076201;28;20051;-96
2020/12/05 08:09:38;;;;;;;1.17;0.40;;;;;;;5.21;76.99;97453.88;5431696;23;20304;-96
2020/12/05 08:33:02;;;;;;;1.50;0.50;;;;;;;5.87;75.36;97502.34;5443612;23;20050;-95
2020/12/05 09:06:31;;;;;;;3.35;0.77;;;;;;;6.23;75.20;97581.41;5868831;23;20052;-95
2020/12/05 09:24:19;;;;;;;2.72;1.23;;;;;;;6.71;74.75;97603.75;5053825;28;20057;-95
2020/12/05 09:29:20;;;;;;;4.72;2.25;;;;;;;7.23;73.13;97620.50;5816418;23;20043;-96
2020/12/05 09:39:31;;;;;;;9.38;1.83;;;;;;;6.95;73.66;97628.38;5317053;23;20437;-96
2020/12/05 09:41:57;;;;;;;5.35;1.95;;;;;;;7.39;72.80;97656.34;5076385;28;20096;-96
2020/12/05 09:44:23;;;;;;;11.82;2.60;;;;;;;7.33;72.20;97639.47;5060547;28;20031;-95
2020/12/05 09:46:48;;;;;;;4.70;1.60;;;;;;;7.66;72.63;97652.75;5074235;28;20093;-95
2020/12/05 09:49:13;;;;;;;8.70;2.50;;;;;;;7.70;71.62;97673.22;5053166;28;20094;-95
2020/12/05 09:51:39;;;;;;;6.13;2.42;;;;;;;7.81;71.31;97656.44;5038046;28;20112;-95
2020/12/05 09:54:04;;;;;;;3.03;0.80;;;;;;;7.78;71.92;97661.16;5038519;28;20040;-95
2020/12/05 09:56:30;;;;;;;10.80;2.28;;;;;;;7.70;71.58;97667.13;5038461;28;20030;-95
2020/12/05 09:58:57;;;;;;;9.55;1.80;;;;;;;7.73;71.64;97649.38;5032396;28;20075;-96
2020/12/05 10:01:26;;;;;;;5.70;1.23;;;;;;;7.82;71.20;97645.03;5031982;28;20025;-94
2020/12/05 10:03:52;;;;;;;8.20;1.33;;;;;;;7.88;71.37;97677.56;5037469;28;20022;-94
2020/12/05 10:06:17;;;;;;;6.00;1.65;;;;;;;7.90;71.07;97649.50;5039137;28;20030;-94
2020/12/05 10:08:42;;;;;;;9.85;1.40;;;;;;;8.01;70.87;97666.69;5038445;28;20026;-96
2020/12/05 10:11:08;;;;;;;12.27;2.83;;;;;;;7.84;71.44;97697.09;5033868;28;20022;-96
2020/12/05 10:13:33;;;;;;;14.13;1.80;;;;;;;8.08;71.01;97699.06;5037167;28;20028;-95
2020/12/05 10:15:59;;;;;;;15.55;2.20;;;;;;;8.01;71.28;97708.50;5034210;28;20045;-93
2020/12/05 10:18:24;;;;;;;9.48;1.42;;;;;;;8.05;70.96;97715.84;5034521;28;20025;-95
2020/12/05 10:20:49;;;;;;;18.25;1.85;;;;;;;7.94;70.97;97729.19;5034086;28;20029;-94
2020/12/05 10:23:15;;;;;;;12.38;2.00;;;;;;;7.85;71.13;97712.63;5036221;28;20379;-93
2020/12/05 10:25:40;;;;;;;10.55;2.08;;;;;;;8.11;71.59;97730.09;5036327;28;20035;-94
2020/12/05 10:28:05;;;;;;;11.15;2.20;;;;;;;8.23;70.74;97736.72;5034015;28;20021;-95
2020/12/05 10:30:31;;;;;;;11.63;1.90;;;;;;;8.32;69.75;97746.25;5033453;28;20395;-94
2020/12/05 10:32:56;;;;;;;11.20;1.38;;;;;;;7.81;71.13;97734.81;5065395;23;20035;-88
2020/12/05 10:35:21;;;;;;;11.88;1.70;;;;;;;7.95;70.90;97741.28;5050831;28;20525;-90
2020/12/05 10:37:47;;;;;;;10.55;1.42;;;;;;;8.23;70.25;97744.53;5051118;28;20543;-90
2020/12/05 10:40:12;;;;;;;9.43;1.42;;;;;;;8.25;69.91;97739.97;5052897;28;20033;-89
2020/12/05 10:42:37;;;;;;;7.53;2.78;;;;;;;8.29;69.84;97751.81;5053165;28;20123;-89
2020/12/05 10:45:03;;;;;;;12.93;1.88;;;;;;;8.51;69.71;97766.16;5051161;28;20056;-91
2020/12/05 10:47:28;;;;;;;12.98;2.00;;;;;;;8.51;69.68;97771.38;5051701;28;20025;-90
2020/12/05 10:49:54;;;;;;;9.98;1.60;;;;;;;8.31;69.99;97765.53;5053370;28;20465;-92
2020/12/05 10:52:19;;;;;;;8.10;1.25;;;;;;;8.04;70.13;97765.69;5052729;28;20029;-89
2020/12/05 10:54:44;;;;;;;11.07;1.70;;;;;;;8.38;69.95;97772.75;5052782;28;20082;-91
2020/12/05 10:57:10;;;;;;;14.25;2.47;;;;;;;8.30;70.15;97765.69;5051397;28;20052;-91
2020/12/05 10:59:36;;;;;;;5.55;1.73;;;;;;;8.23;70.18;97775.91;5051572;28;20048;-90
2020/12/05 11:02:01;;;;;;;6.50;1.38;;;;;;;8.50;69.21;97776.78;5043574;28;20029;-91
2020/12/05 11:04:26;;;;;;;11.07;1.60;;;;;;;8.36;69.88;97803.47;5051286;28;20275;-92
2020/12/05 11:06:52;;;;;;;10.35;2.17;;;;;;;8.65;69.47;97788.28;5051694;28;20051;-92
2020/12/05 11:09:17;;;;;;;11.25;1.80;;;;;;;8.34;68.84;97762.59;5050745;28;20055;-91
2020/12/05 11:11:45;;;;;;;11.77;1.88;;;;;;;8.47;68.77;97787.53;5053207;28;20029;-92
2020/12/05 11:14:11;;;;;;;11.02;2.08;;;;;;;8.45;69.55;97799.94;5050887;28;20159;-92
2020/12/05 11:16:36;;;;;;;9.20;1.50;;;;;;;8.38;69.32;97804.94;5050955;28;20115;-93
2020/12/05 11:19:02;;;;;;;10.90;1.60;;;;;;;8.39;68.99;97831.91;5051415;28;20032;-92
2020/12/05 11:21:27;;;;;;;8.10;1.55;;;;;;;8.80;68.83;97819.91;5055602;28;20024;-92
2020/12/05 11:23:53;;;;;;;7.95;1.60;;;;;;;9.01;68.27;97822.13;5051856;28;20021;-92
2020/12/05 11:26:20;;;;;;;10.77;1.50;;;;;;;8.96;67.75;97839.28;5053735;28;20052;-94
2020/12/05 11:28:46;;;;;;;5.65;1.38;;;;;;;9.24;67.54;97839.88;5053764;28;20072;-94
2020/12/05 11:31:11;;;;;;;12.95;1.52;;;;;;;9.10;67.48;97841.28;5055833;28;20023;-92
2020/12/05 11:33:37;;;;;;;9.15;2.28;;;;;;;9.18;67.05;97838.72;5061648;28;20096;-93
2020/12/05 11:36:02;;;;;;;8.88;1.77;;;;;;;8.96;67.71;97853.19;5056510;28;20029;-90
2020/12/05 11:38:28;;;;;;;8.73;1.48;;;;;;;9.04;67.48;97853.22;5052402;28;20031;-91
2020/12/05 11:40:53;;;;;;;7.18;1.20;;;;;;;9.22;67.56;97852.31;5051747;28;20078;-90
2020/12/05 11:43:19;;;;;;;4.05;1.52;;;;;;;9.30;67.60;97849.72;5049667;28;20064;-89
2020/12/05 11:45:46;;;;;;;10.20;1.35;;;;;;;9.32;67.31;97877.41;5044788;28;20036;-89
2020/12/05 11:48:11;;;;;;;6.32;1.67;;;;;;;9.17;67.33;97859.84;5046565;28;20068;-90
2020/12/05 11:50:37;;;;;;;12.15;1.85;;;;;;;9.34;67.31;97869.38;5048522;28;20048;-89
2020/12/05 11:53:03;;;;;;;9.18;2.17;;;;;;;9.11;66.84;97864.72;5049466;28;20499;-91
2020/12/05 11:55:29;;;;;;;8.05;1.52;;;;;;;8.97;66.81;97870.53;5050555;28;20036;-92
2020/12/05 11:57:54;;;;;;;5.88;0.90;;;;;;;9.11;66.79;97880.41;5051685;28;20021;-90
2020/12/05 12:00:19;;;;;;;9.25;2.45;;;;;;;9.33;66.83;97884.25;5048526;28;20071;-89
2020/12/05 12:02:45;;;;;;;7.80;1.90;;;;;;;9.72;65.64;97896.00;5045096;28;20021;-87
2020/12/05 12:05:10;;;;;;;6.93;1.65;;;;;;;10.16;65.20;97903.59;5048425;28;20021;-87
2020/12/05 12:07:35;;;;;;;7.00;1.65;;;;;;;10.11;65.01;97904.09;5039993;28;20030;-88
2020/12/05 12:10:01;;;;;;;3.35;1.27;;;;;;;10.54;64.32;97911.00;5047329;28;20068;-88
2020/12/05 12:12:26;;;;;;;4.25;1.20;;;;;;;10.38;63.66;97903.97;5051749;28;20025;-88
2020/12/05 12:14:51;;;;;;;7.28;2.25;;;;;;;10.93;62.71;97911.13;5050837;28;20430;-88
2020/12/05 12:17:17;;;;;;;6.13;1.65;;;;;;;10.88;62.37;97927.38;5051318;28;20031;-83
2020/12/05 12:19:42;;;;;;;8.50;1.40;;;;;;;10.32;62.90;97926.44;5050526;28;20068;-83
2020/12/05 12:22:07;;;;;;;9.15;1.83;;;;;;;10.88;63.27;97932.63;5050863;28;20529;-84
2020/12/05 12:24:33;;;;;;;6.80;1.70;;;;;;;10.82;61.84;97940.34;5050452;28;20471;-84
2020/12/05 12:26:58;;;;;;;8.98;2.00;;;;;;;10.49;63.32;97954.31;5051067;28;20020;-88
2020/12/05 12:29:23;;;;;;;7.18;1.40;;;;;;;10.20;63.73;97946.88;5049977;28;20033;-87
2020/12/05 12:31:52;;;;;;;10.07;1.88;;;;;;;9.89;63.71;97968.47;5048502;28;20471;-87
2020/12/05 12:34:18;;;;;;;7.05;1.50;;;;;;;9.88;65.29;97971.22;5050210;23;20430;-91
2020/12/05 12:36:43;;;;;;;9.95;2.65;;;;;;;9.92;64.85;97962.06;5050150;28;20031;-91
2020/12/05 12:39:09;;;;;;;8.05;2.17;;;;;;;9.44;64.40;97969.59;5046600;28;20025;-92
2020/12/05 12:41:34;;;;;;;5.63;1.50;;;;;;;9.99;63.98;97980.59;5032029;28;20029;-93
2020/12/05 12:43:59;;;;;;;3.63;1.17;;;;;;;9.81;63.95;97976.28;5030897;28;20049;-91
2020/12/05 12:46:26;;;;;;;13.60;1.88;;;;;;;9.70;64.51;97987.88;5038386;28;20076;-92
2020/12/05 12:48:51;;;;;;;5.07;1.63;;;;;;;9.41;65.44;97990.03;5027414;28;20129;-92
2020/12/05 12:51:22;;;;;;;7.55;1.27;;;;;;;9.73;64.83;97989.34;5027521;28;20085;-92
2020/12/05 12:53:47;;;;;;;5.85;1.20;;;;;;;10.01;63.37;97983.88;5031111;28;20028;-93
2020/12/05 12:56:16;;;;;;;5.05;1.17;;;;;;;9.91;64.12;97991.88;5046174;28;20022;-88
2020/12/05 12:58:46;;;;;;;9.57;1.65;;;;;;;10.21;63.53;98006.22;5030047;28;20032;-88
2020/12/05 13:01:18;;;;;;;5.22;1.30;;;;;;;10.38;63.59;98014.16;5036047;28;20159;-89
2020/12/05 13:03:44;;;;;;;4.18;1.15;;;;;;;10.22;63.89;98023.59;5029973;28;20107;-88
2020/12/05 13:06:19;;;;;;;6.20;1.42;;;;;;;10.07;63.51;98022.56;5033135;28;20135;-88
2020/12/05 13:08:45;;;;;;;8.52;1.80;;;;;;;9.89;63.88;98017.41;5029282;28;20104;-89
2020/12/05 13:11:14;;;;;;;8.45;1.60;;;;;;;9.95;63.21;98013.34;5031822;28;20044;-88
2020/12/05 13:13:43;;;;;;;4.82;1.45;;;;;;;9.72;64.24;98013.94;5035772;28;20017;-88
2020/12/05 13:16:09;;;;;;;7.20;1.52;;;;;;;10.11;63.37;98014.22;5030690;28;20510;-88
2020/12/05 13:18:35;;;;;;;4.60;1.77;;;;;;;10.31;61.77;98020.03;5028410;28;20026;-88